Buoy 56916

sailwx.info

Track history (hours):
 
Tides and Currents Weather Stations Pressure Air Temp Water Temp Dewpoint Dewpoint Depression Visibility Wind Speed Wind Dir Waves Ship Positions

Drifting buoy 56916

Last reported at 2016-Aug-29 18:00 UTC. Time now 2016-Aug-29 19:53 UTC.
Position S 50°44' E 126°29'.

Barometer 1006.7 mb
Water temperature 5.4 ° C

Date/timePositionNaut miles runAvg speedWind from/ knotsBaromVisibWave heightAir tempDewpointWater temp
2016-Aug-29 18:00S 50°44' E 126°29'9 1.1 1006.7 5.4
2016-Aug-29 10:00S 50°43' E 126°16'1 0.8 1010.0 5.4
2016-Aug-29 09:00S 50°43' E 126°15'2 2.4 1010.2 5.3
2016-Aug-29 08:00S 50°43' E 126°11'0 0.0 1010.4 5.4
2016-Aug-29 06:00S 50°43' E 126°11'6 1.1 1011.0 4.9
2016-Aug-29 01:00S 50°43' E 126°02'1 0.6 1013.5 4.6
2016-Aug-29 00:00S 50°43' E 126°01'1 1.3 1013.3 4.5
2016-Aug-28 23:00S 50°44' E 125°59'3 1.5 1013.6 4.3
2016-Aug-28 21:00S 50°43' E 125°54'0 0.4 1013.5 4.2
2016-Aug-28 20:00S 50°44' E 125°54'2 1.8 1013.4 4.2
2016-Aug-28 19:00S 50°44' E 125°51'0 0.0 1013.5 4.2
2016-Aug-28 18:00S 50°44' E 125°51'2 1.8 1013.7 4.2
2016-Aug-28 17:00S 50°45' E 125°49'0 0.1 1013.7 4.2
2016-Aug-28 16:00S 50°45' E 125°49'2 2.4 1014.1 4.2
2016-Aug-28 15:00S 50°45' E 125°45'1 1.0 1014.1 4.2
2016-Aug-28 14:00S 50°45' E 125°43'1 1.1 1014.2 4.2
2016-Aug-28 13:00S 50°46' E 125°42'2 0.9 1014.3 4.3
2016-Aug-28 11:00S 50°46' E 125°39'1 1.4 1014.5 4.3
2016-Aug-28 10:00S 50°46' E 125°37'1 0.8 1014.1 4.4
2016-Aug-28 09:00S 50°46' E 125°35'0 0.5 1013.5 4.4
2016-Aug-28 08:00S 50°46' E 125°35'3 2.6 1013.1 4.4
2016-Aug-28 07:00S 50°46' E 125°31'0 0.0 1012.7 4.4
2016-Aug-28 06:00S 50°46' E 125°31'0 0.0 1012.9 4.4
2016-Aug-28 05:00S 50°46' E 125°31'6 1.6 1012.7 4.4
2016-Aug-28 01:00S 50°47' E 125°21'5 1.6 1012.2 4.3
2016-Aug-27 22:00S 50°48' E 125°13'0 0.5 1009.9 4.2
2016-Aug-27 21:00S 50°49' E 125°13'0 0.0 1009.3 4.2
2016-Aug-27 20:00S 50°49' E 125°13'3 3.3 1008.5 4.2
2016-Aug-27 19:00S 50°49' E 125°07'2 2.2 1008.1 4.2
2016-Aug-27 18:00S 50°50' E 125°04'2 0.8 1007.8 4.2
2016-Aug-27 16:00S 50°50' E 125°02'6 1.4 1007.2 4.2
2016-Aug-27 12:00S 50°51' E 124°53'0 0.0 1007.2 4.2
2016-Aug-27 11:00S 50°51' E 124°53'2 1.2 1006.9 4.2
2016-Aug-27 09:00S 50°51' E 124°49'3 0.9 1005.8 4.2
2016-Aug-27 06:00S 50°52' E 124°45'6 6.2 1004.8 4.2
2016-Aug-27 05:00S 50°53' E 124°35'0 0.0 1004.8 4.2
2016-Aug-27 01:00S 50°53' E 124°35'3 2.5 1006.7 4.2
2016-Aug-27 00:00S 50°54' E 124°31'4 1.4 1006.8 4.3
2016-Aug-26 21:00S 50°54' E 124°25'0 0.2 1006.5 4.4
2016-Aug-26 19:00S 50°54' E 124°24'0 0.0 1006.6 4.5
2016-Aug-26 18:00S 50°54' E 124°24'2 1.7 1006.6 4.3
2016-Aug-26 17:00S 50°55' E 124°21'0 0.0 1006.3 4.3
2016-Aug-26 16:00S 50°55' E 124°21'2 2.2 1005.9 4.2
2016-Aug-26 15:00S 50°56' E 124°18'0 0.4 1005.3 4.2
2016-Aug-26 14:00S 50°55' E 124°18'2 0.8 1004.8 4.2
2016-Aug-26 11:00S 50°56' E 124°14'1 0.6 1002.1 4.2
2016-Aug-26 10:00S 50°56' E 124°13'5 1.0 1001.1 4.2
2016-Aug-26 05:00S 50°58' E 124°06'3 0.5 996.3 4.2
2016-Aug-26 00:00S 50°59' E 124°02'0 0.0 994.9 4.2
2016-Aug-25 23:00S 50°59' E 124°02'1 0.5 994.5 4.2
2016-Aug-25 21:00S 50°60' E 124°01'3 0.7 993.6 4.2
2016-Aug-25 17:00S 51°00' E 123°56'1 0.8 992.4 4.2
2016-Aug-25 16:00S 51°00' E 123°55'6 0.8 992.2 4.2
2016-Aug-25 09:00S 51°03' E 123°47'1 0.6 993.3 4.3
2016-Aug-25 07:00S 51°03' E 123°45'0 0.0 994.6 4.3
2016-Aug-25 05:00S 51°03' E 123°45'3 0.9 996.3 4.3
2016-Aug-25 02:00S 51°02' E 123°41'1 0.6 999.2 4.3
2016-Aug-25 00:00S 51°01' E 123°39'1 0.9 1000.6 4.3
2016-Aug-24 23:00S 51°01' E 123°38'1 0.6 1001.6 4.3
2016-Aug-24 21:00S 51°00' E 123°36'0 0.0 1003.2 4.3
2016-Aug-24 20:00S 51°00' E 123°36'0 0.2 1003.9 4.3
2016-Aug-24 19:00S 50°60' E 123°36'2 1.0 1004.5 4.3
2016-Aug-24 17:00S 50°59' E 123°34'1 0.3 1005.6 4.3
2016-Aug-24 15:00S 50°58' E 123°34'1 0.6 1006.1 4.3
2016-Aug-24 13:00S 50°57' E 123°34'1 0.5 1007.2 4.3
2016-Aug-24 10:00S 50°57' E 123°32'0 0.2 1006.2 4.3
2016-Aug-24 09:00S 50°58' E 123°32'1 0.5 1005.8 4.3
2016-Aug-24 07:00S 50°57' E 123°31'1 0.7 1005.7 4.3
2016-Aug-24 05:00S 50°56' E 123°29'2 0.6 1007.1 4.4
2016-Aug-24 01:00S 50°54' E 123°26'3 0.8 1011.0 4.6
2016-Aug-23 21:00S 50°52' E 123°22'0 0.4 1013.3 4.6
2016-Aug-23 20:00S 50°52' E 123°22'2 0.6 1013.6 4.6
2016-Aug-23 17:00S 50°51' E 123°19'2 1.2 1015.8 4.8
2016-Aug-23 15:00S 50°50' E 123°16'3 0.6 1016.3 4.8
2016-Aug-23 10:00S 50°48' E 123°12'1 0.6 1017.4 4.7
2016-Aug-23 09:00S 50°48' E 123°11'1 1.0 1017.4 4.6
2016-Aug-23 08:00S 50°47' E 123°10'0 0.0 1017.1 4.6
2016-Aug-23 07:00S 50°47' E 123°10'2 1.5 1017.1 4.5
2016-Aug-23 06:00S 50°46' E 123°08'0 0.0 1017.0 4.4
2016-Aug-23 05:00S 50°46' E 123°08'4 1.1 1017.0 4.4
2016-Aug-23 01:00S 50°44' E 123°02'2 1.8 1017.8 4.3
2016-Aug-23 00:00S 50°43' E 122°60'1 0.6 1017.9 4.3
2016-Aug-22 23:00S 50°43' E 122°59'1 1.0 1018.4 4.3
2016-Aug-22 22:00S 50°42' E 122°58'1 1.3 1018.3 4.3
2016-Aug-22 21:00S 50°41' E 122°57'1 0.6 1017.9 4.3
2016-Aug-22 20:00S 50°41' E 122°56'2 2.0 1018.0 4.3
2016-Aug-22 19:00S 50°40' E 122°53'2 0.8 1018.2 4.3
2016-Aug-22 17:00S 50°40' E 122°50'0 0.4 1018.6 4.3
2016-Aug-22 16:00S 50°40' E 122°50'3 1.3 1018.7 4.3
2016-Aug-22 14:00S 50°39' E 122°47'3 1.1 1019.2 4.3
2016-Aug-22 11:00S 50°37' E 122°42'0 0.5 1018.6 4.3
2016-Aug-22 10:00S 50°37' E 122°41'3 1.5 1018.4 4.3
2016-Aug-22 08:00S 50°36' E 122°37'0 0.0 1017.3 4.3
2016-Aug-22 07:00S 50°36' E 122°37'1 1.2 1016.9 4.4
2016-Aug-22 06:00S 50°35' E 122°36'5 1.0 1016.3 4.4
2016-Aug-22 01:00S 50°35' E 122°28'1 1.0 1013.8 4.3
2016-Aug-22 00:00S 50°34' E 122°27'1 1.0 1013.1 4.3
2016-Aug-21 23:00S 50°35' E 122°25'3 1.4 1012.2 4.3
2016-Aug-21 21:00S 50°34' E 122°21'1 1.4 1010.2 4.3
2016-Aug-21 20:00S 50°33' E 122°19'0 0.0 1009.1 4.3
2016-Aug-21 19:00S 50°33' E 122°19'3 1.3 1008.4 4.3
2016-Aug-21 17:00S 50°34' E 122°15'0 0.0 1006.5 4.3
2016-Aug-21 16:00S 50°34' E 122°15'2 1.1 1005.4 4.2
2016-Aug-21 14:00S 50°34' E 122°12'4 1.3 1003.3 4.2
2016-Aug-21 11:00S 50°35' E 122°06'2 1.9 1000.7 4.3
2016-Aug-21 10:00S 50°36' E 122°03'0 0.0 999.6 4.3
2016-Aug-21 09:00S 50°36' E 122°03'2 2.3 998.2 4.3
2016-Aug-21 08:00S 50°37' E 121°60'2 1.2 996.6 4.3
2016-Aug-21 06:00S 50°37' E 121°56'6 1.5 996.6 4.3
2016-Aug-21 02:00S 50°38' E 121°47'4 2.0 998.3 4.3
2016-Aug-21 00:00S 50°40' E 121°41'2 1.2 998.9 4.3
2016-Aug-20 22:00S 50°41' E 121°37'7 1.6 999.6 4.3
2016-Aug-20 18:00S 50°42' E 121°27'3 2.6 1001.2 4.3
2016-Aug-20 17:00S 50°43' E 121°24'4 1.2 1001.7 4.3
2016-Aug-20 14:00S 50°44' E 121°18'1 1.0 1003.3 4.3
2016-Aug-20 13:00S 50°44' E 121°17'4 1.2 1003.7 4.3
2016-Aug-20 10:00S 50°45' E 121°11'1 1.1 1004.3 4.3
2016-Aug-20 09:00S 50°45' E 121°10'0 0.4 1004.1 4.3
2016-Aug-20 08:00S 50°45' E 121°09'2 1.1 1004.2 4.3
2016-Aug-20 06:00S 50°46' E 121°06'7 1.9 1004.2 4.3
2016-Aug-20 02:00S 50°49' E 120°55'0 0.0 1003.6 4.3
2016-Aug-20 00:00S 50°49' E 120°55'2 1.7 1003.0 4.3
2016-Aug-19 23:00S 50°50' E 120°52'3 0.9 1002.6 4.3
2016-Aug-19 20:00S 50°50' E 120°48'2 1.7 1000.8 4.3
2016-Aug-19 19:00S 50°50' E 120°46'1 1.3 1000.4 4.3
2016-Aug-19 18:00S 50°51' E 120°44'   1000.2 4.3
Track history (hours):
 
Tides and Currents Weather Stations Pressure Air Temp Water Temp Dewpoint Dewpoint Depression Visibility Wind Speed Wind Dir Waves Ship Positions

Drifting buoy 56916

Last reported at 2016-Aug-29 18:00 UTC. Time now 2016-Aug-29 19:53 UTC.
Position S 50°44' E 126°29'.

Barometer 1006.7 mb
Water temperature 5.4 ° C

Date/timePositionNaut miles runAvg speedWind from/ knotsBaromVisibWave heightAir tempDewpointWater temp
2016-Aug-29 18:00S 50°44' E 126°29'9 1.1 1006.7 5.4
2016-Aug-29 10:00S 50°43' E 126°16'1 0.8 1010.0 5.4
2016-Aug-29 09:00S 50°43' E 126°15'2 2.4 1010.2 5.3
2016-Aug-29 08:00S 50°43' E 126°11'0 0.0 1010.4 5.4
2016-Aug-29 06:00S 50°43' E 126°11'6 1.1 1011.0 4.9
2016-Aug-29 01:00S 50°43' E 126°02'1 0.6 1013.5 4.6
2016-Aug-29 00:00S 50°43' E 126°01'1 1.3 1013.3 4.5
2016-Aug-28 23:00S 50°44' E 125°59'3 1.5 1013.6 4.3
2016-Aug-28 21:00S 50°43' E 125°54'0 0.4 1013.5 4.2
2016-Aug-28 20:00S 50°44' E 125°54'2 1.8 1013.4 4.2
2016-Aug-28 19:00S 50°44' E 125°51'0 0.0 1013.5 4.2
2016-Aug-28 18:00S 50°44' E 125°51'2 1.8 1013.7 4.2
2016-Aug-28 17:00S 50°45' E 125°49'0 0.1 1013.7 4.2
2016-Aug-28 16:00S 50°45' E 125°49'2 2.4 1014.1 4.2
2016-Aug-28 15:00S 50°45' E 125°45'1 1.0 1014.1 4.2
2016-Aug-28 14:00S 50°45' E 125°43'1 1.1 1014.2 4.2
2016-Aug-28 13:00S 50°46' E 125°42'2 0.9 1014.3 4.3
2016-Aug-28 11:00S 50°46' E 125°39'1 1.4 1014.5 4.3
2016-Aug-28 10:00S 50°46' E 125°37'1 0.8 1014.1 4.4
2016-Aug-28 09:00S 50°46' E 125°35'0 0.5 1013.5 4.4
2016-Aug-28 08:00S 50°46' E 125°35'3 2.6 1013.1 4.4
2016-Aug-28 07:00S 50°46' E 125°31'0 0.0 1012.7 4.4
2016-Aug-28 06:00S 50°46' E 125°31'0 0.0 1012.9 4.4
2016-Aug-28 05:00S 50°46' E 125°31'6 1.6 1012.7 4.4
2016-Aug-28 01:00S 50°47' E 125°21'5 1.6 1012.2 4.3
2016-Aug-27 22:00S 50°48' E 125°13'0 0.5 1009.9 4.2
2016-Aug-27 21:00S 50°49' E 125°13'0 0.0 1009.3 4.2
2016-Aug-27 20:00S 50°49' E 125°13'3 3.3 1008.5 4.2
2016-Aug-27 19:00S 50°49' E 125°07'2 2.2 1008.1 4.2
2016-Aug-27 18:00S 50°50' E 125°04'2 0.8 1007.8 4.2
2016-Aug-27 16:00S 50°50' E 125°02'6 1.4 1007.2 4.2
2016-Aug-27 12:00S 50°51' E 124°53'0 0.0 1007.2 4.2
2016-Aug-27 11:00S 50°51' E 124°53'2 1.2 1006.9 4.2
2016-Aug-27 09:00S 50°51' E 124°49'3 0.9 1005.8 4.2
2016-Aug-27 06:00S 50°52' E 124°45'6 6.2 1004.8 4.2
2016-Aug-27 05:00S 50°53' E 124°35'0 0.0 1004.8 4.2
2016-Aug-27 01:00S 50°53' E 124°35'3 2.5 1006.7 4.2
2016-Aug-27 00:00S 50°54' E 124°31'4 1.4 1006.8 4.3
2016-Aug-26 21:00S 50°54' E 124°25'0 0.2 1006.5 4.4
2016-Aug-26 19:00S 50°54' E 124°24'0 0.0 1006.6 4.5
2016-Aug-26 18:00S 50°54' E 124°24'2 1.7 1006.6 4.3
2016-Aug-26 17:00S 50°55' E 124°21'0 0.0 1006.3 4.3
2016-Aug-26 16:00S 50°55' E 124°21'2 2.2 1005.9 4.2
2016-Aug-26 15:00S 50°56' E 124°18'0 0.4 1005.3 4.2
2016-Aug-26 14:00S 50°55' E 124°18'2 0.8 1004.8 4.2
2016-Aug-26 11:00S 50°56' E 124°14'1 0.6 1002.1 4.2
2016-Aug-26 10:00S 50°56' E 124°13'5 1.0 1001.1 4.2
2016-Aug-26 05:00S 50°58' E 124°06'3 0.5 996.3 4.2
2016-Aug-26 00:00S 50°59' E 124°02'0 0.0 994.9 4.2
2016-Aug-25 23:00S 50°59' E 124°02'1 0.5 994.5 4.2
2016-Aug-25 21:00S 50°60' E 124°01'3 0.7 993.6 4.2
2016-Aug-25 17:00S 51°00' E 123°56'1 0.8 992.4 4.2
2016-Aug-25 16:00S 51°00' E 123°55'6 0.8 992.2 4.2
2016-Aug-25 09:00S 51°03' E 123°47'1 0.6 993.3 4.3
2016-Aug-25 07:00S 51°03' E 123°45'0 0.0 994.6 4.3
2016-Aug-25 05:00S 51°03' E 123°45'3 0.9 996.3 4.3
2016-Aug-25 02:00S 51°02' E 123°41'1 0.6 999.2 4.3
2016-Aug-25 00:00S 51°01' E 123°39'1 0.9 1000.6 4.3
2016-Aug-24 23:00S 51°01' E 123°38'1 0.6 1001.6 4.3
2016-Aug-24 21:00S 51°00' E 123°36'0 0.0 1003.2 4.3
2016-Aug-24 20:00S 51°00' E 123°36'0 0.2 1003.9 4.3
2016-Aug-24 19:00S 50°60' E 123°36'2 1.0 1004.5 4.3
2016-Aug-24 17:00S 50°59' E 123°34'1 0.3 1005.6 4.3
2016-Aug-24 15:00S 50°58' E 123°34'1 0.6 1006.1 4.3
2016-Aug-24 13:00S 50°57' E 123°34'1 0.5 1007.2 4.3
2016-Aug-24 10:00S 50°57' E 123°32'0 0.2 1006.2 4.3
2016-Aug-24 09:00S 50°58' E 123°32'1 0.5 1005.8 4.3
2016-Aug-24 07:00S 50°57' E 123°31'1 0.7 1005.7 4.3
2016-Aug-24 05:00S 50°56' E 123°29'2 0.6 1007.1 4.4
2016-Aug-24 01:00S 50°54' E 123°26'3 0.8 1011.0 4.6
2016-Aug-23 21:00S 50°52' E 123°22'0 0.4 1013.3 4.6
2016-Aug-23 20:00S 50°52' E 123°22'2 0.6 1013.6 4.6
2016-Aug-23 17:00S 50°51' E 123°19'2 1.2 1015.8 4.8
2016-Aug-23 15:00S 50°50' E 123°16'3 0.6 1016.3 4.8
2016-Aug-23 10:00S 50°48' E 123°12'1 0.6 1017.4 4.7
2016-Aug-23 09:00S 50°48' E 123°11'1 1.0 1017.4 4.6
2016-Aug-23 08:00S 50°47' E 123°10'0 0.0 1017.1 4.6
2016-Aug-23 07:00S 50°47' E 123°10'2 1.5 1017.1 4.5
2016-Aug-23 06:00S 50°46' E 123°08'0 0.0 1017.0 4.4
2016-Aug-23 05:00S 50°46' E 123°08'4 1.1 1017.0 4.4
2016-Aug-23 01:00S 50°44' E 123°02'2 1.8 1017.8 4.3
2016-Aug-23 00:00S 50°43' E 122°60'1 0.6 1017.9 4.3
2016-Aug-22 23:00S 50°43' E 122°59'1 1.0 1018.4 4.3
2016-Aug-22 22:00S 50°42' E 122°58'1 1.3 1018.3 4.3
2016-Aug-22 21:00S 50°41' E 122°57'1 0.6 1017.9 4.3
2016-Aug-22 20:00S 50°41' E 122°56'2 2.0 1018.0 4.3
2016-Aug-22 19:00S 50°40' E 122°53'2 0.8 1018.2 4.3
2016-Aug-22 17:00S 50°40' E 122°50'0 0.4 1018.6 4.3
2016-Aug-22 16:00S 50°40' E 122°50'3 1.3 1018.7 4.3
2016-Aug-22 14:00S 50°39' E 122°47'3 1.1 1019.2 4.3
2016-Aug-22 11:00S 50°37' E 122°42'0 0.5 1018.6 4.3
2016-Aug-22 10:00S 50°37' E 122°41'3 1.5 1018.4 4.3
2016-Aug-22 08:00S 50°36' E 122°37'0 0.0 1017.3 4.3
2016-Aug-22 07:00S 50°36' E 122°37'1 1.2 1016.9 4.4
2016-Aug-22 06:00S 50°35' E 122°36'5 1.0 1016.3 4.4
2016-Aug-22 01:00S 50°35' E 122°28'1 1.0 1013.8 4.3
2016-Aug-22 00:00S 50°34' E 122°27'1 1.0 1013.1 4.3
2016-Aug-21 23:00S 50°35' E 122°25'3 1.4 1012.2 4.3
2016-Aug-21 21:00S 50°34' E 122°21'1 1.4 1010.2 4.3
2016-Aug-21 20:00S 50°33' E 122°19'0 0.0 1009.1 4.3
2016-Aug-21 19:00S 50°33' E 122°19'3 1.3 1008.4 4.3
2016-Aug-21 17:00S 50°34' E 122°15'0 0.0 1006.5 4.3
2016-Aug-21 16:00S 50°34' E 122°15'2 1.1 1005.4 4.2
2016-Aug-21 14:00S 50°34' E 122°12'4 1.3 1003.3 4.2
2016-Aug-21 11:00S 50°35' E 122°06'2 1.9 1000.7 4.3
2016-Aug-21 10:00S 50°36' E 122°03'0 0.0 999.6 4.3
2016-Aug-21 09:00S 50°36' E 122°03'2 2.3 998.2 4.3
2016-Aug-21 08:00S 50°37' E 121°60'2 1.2 996.6 4.3
2016-Aug-21 06:00S 50°37' E 121°56'6 1.5 996.6 4.3
2016-Aug-21 02:00S 50°38' E 121°47'4 2.0 998.3 4.3
2016-Aug-21 00:00S 50°40' E 121°41'2 1.2 998.9 4.3
2016-Aug-20 22:00S 50°41' E 121°37'7 1.6 999.6 4.3
2016-Aug-20 18:00S 50°42' E 121°27'3 2.6 1001.2 4.3
2016-Aug-20 17:00S 50°43' E 121°24'4 1.2 1001.7 4.3
2016-Aug-20 14:00S 50°44' E 121°18'1 1.0 1003.3 4.3
2016-Aug-20 13:00S 50°44' E 121°17'4 1.2 1003.7 4.3
2016-Aug-20 10:00S 50°45' E 121°11'1 1.1 1004.3 4.3
2016-Aug-20 09:00S 50°45' E 121°10'0 0.4 1004.1 4.3
2016-Aug-20 08:00S 50°45' E 121°09'2 1.1 1004.2 4.3
2016-Aug-20 06:00S 50°46' E 121°06'7 1.9 1004.2 4.3
2016-Aug-20 02:00S 50°49' E 120°55'0 0.0 1003.6 4.3
2016-Aug-20 00:00S 50°49' E 120°55'2 1.7 1003.0 4.3
2016-Aug-19 23:00S 50°50' E 120°52'3 0.9 1002.6 4.3
2016-Aug-19 20:00S 50°50' E 120°48'2 1.7 1000.8 4.3
2016-Aug-19 19:00S 50°50' E 120°46'1 1.3 1000.4 4.3
2016-Aug-19 18:00S 50°51' E 120°44'   1000.2 4.3

Dump ship's entire track history